Time;durP1;ratioP1;P1;durP2;ratioP2;P2;SDS_P1;SDS_P2;PMS_P1;PMS_P2;Temp;Humidity;BMP_temperature;BMP_pressure;BME280_temperature;BME280_humidity;BME280_pressure;Samples;Min_cycle;Max_cycle;Signal;HPM_P1;HPM_P2
2023/06/22 00:03:10;;;;;;;;;;;;;;;19.19;54.1748;102047;;;;-67
2023/06/22 00:04:54;;;;;;;0.4;0.1;;;;;;;;;;;;;-67
2023/06/22 00:08:10;;;;;;;;;;;;;;;19.09;54.62012;102054.5;;;;-68
2023/06/22 00:13:10;;;;;;;;;;;;;;;19.03;54.32813;102056;;;;-67
2023/06/22 00:18:10;;;;;;;;;;;;;;;19.04;54.79492;102059.9;;;;-67
2023/06/22 00:23:11;;;;;;;;;;;;;;;18.95;54.79492;102061.5;;;;-67
2023/06/22 00:28:10;;;;;;;;;;;;;;;18.88;54.68359;102057.5;;;;-69
2023/06/22 00:33:10;;;;;;;;;;;;;;;18.8;54.95801;102064.9;;;;-68
2023/06/22 00:34:57;;;;;;;0.3;0.2;;;;;;;;;;;;;-67
2023/06/22 00:38:10;;;;;;;;;;;;;;;18.78;55.05762;102061.1;;;;-68
2023/06/22 00:43:10;;;;;;;;;;;;;;;18.74;55.14355;102054.8;;;;-67
2023/06/22 00:48:10;;;;;;;;;;;;;;;18.66;55.21387;102057.1;;;;-68
2023/06/22 00:53:11;;;;;;;;;;;;;;;18.62;55.04883;102055.5;;;;-68
2023/06/22 00:58:12;;;;;;;;;;;;;;;18.61;54.95703;102057.1;;;;-68
2023/06/22 01:03:10;;;;;;;;;;;;;;;18.54;55.4375;102056.9;;;;-67
2023/06/22 01:04:59;;;;;;;0.2;0.1;;;;;;;;;;;;;-68
2023/06/22 01:08:20;;;;;;;;;;;;;;;18.49;55.53223;102056.6;;;;-67
2023/06/22 01:13:11;;;;;;;;;;;;;;;18.46;55.29102;102045.5;;;;-68
2023/06/22 01:18:12;;;;;;;;;;;;;;;18.37;55.4834;102046.8;;;;-68
2023/06/22 01:23:13;;;;;;;;;;;;;;;18.38;55.48535;102046;;;;-68
2023/06/22 01:28:18;;;;;;;;;;;;;;;18.34;55.41211;102042.2;;;;-68
2023/06/22 01:33:10;;;;;;;;;;;;;;;18.35;55.51563;102036.4;;;;-67
2023/06/22 01:35:02;;;;;;;0.6;0.2;;;;;;;;;;;;;-68
2023/06/22 01:38:10;;;;;;;;;;;;;;;18.3;55.67969;102038.6;;;;-66
2023/06/22 01:43:10;;;;;;;;;;;;;;;18.28;55.6084;102045.2;;;;-67
2023/06/22 01:48:10;;;;;;;;;;;;;;;18.26;55.49316;102046.1;;;;-67
2023/06/22 01:53:10;;;;;;;;;;;;;;;18.24;55.67188;102047.9;;;;-67
2023/06/22 01:58:09;;;;;;;;;;;;;;;18.22;55.77148;102037.1;;;;-68
2023/06/22 02:03:12;;;;;;;;;;;;;;;18.22;55.61328;102033.8;;;;-67
2023/06/22 02:05:07;;;;;;;0.2;0;;;;;;;;;;;;;-68
2023/06/22 02:08:14;;;;;;;;;;;;;;;18.21;55.93945;102032;;;;-69
2023/06/22 02:13:11;;;;;;;;;;;;;;;18.14;55.7832;102032;;;;-68
2023/06/22 02:18:10;;;;;;;;;;;;;;;18.09;56.06055;102033;;;;-69
2023/06/22 02:23:10;;;;;;;;;;;;;;;18.07;56.1377;102026.3;;;;-69
2023/06/22 02:28:10;;;;;;;;;;;;;;;18.04;56.23633;102029.2;;;;-69
2023/06/22 02:33:10;;;;;;;;;;;;;;;17.99;56.25195;102026.2;;;;-68
2023/06/22 02:35:08;;;;;;;0.2;0.1;;;;;;;;;;;;;-68
2023/06/22 02:38:10;;;;;;;;;;;;;;;17.93;56.34766;102017.7;;;;-67
2023/06/22 02:43:09;;;;;;;;;;;;;;;17.9;56.15039;102022.5;;;;-67
2023/06/22 02:48:10;;;;;;;;;;;;;;;17.89;56.5791;102019.6;;;;-68
2023/06/22 02:53:10;;;;;;;;;;;;;;;17.84;56.41504;102024.8;;;;-68
2023/06/22 02:58:10;;;;;;;;;;;;;;;17.79;56.64551;102025;;;;-68
2023/06/22 03:03:09;;;;;;;;;;;;;;;17.75;56.76465;102012.8;;;;-67
2023/06/22 03:05:13;;;;;;;0.3;0.2;;;;;;;;;;;;;-68
2023/06/22 03:08:09;;;;;;;;;;;;;;;17.7;57.07617;102015.5;;;;-66
2023/06/22 03:13:09;;;;;;;;;;;;;;;17.64;56.8877;102013.2;;;;-67
2023/06/22 03:18:10;;;;;;;;;;;;;;;17.62;56.80469;102008.7;;;;-68
2023/06/22 03:23:10;;;;;;;;;;;;;;;17.61;57.10938;102005.3;;;;-69
2023/06/22 03:28:10;;;;;;;;;;;;;;;17.59;57.22168;102012.1;;;;-67
2023/06/22 03:33:09;;;;;;;;;;;;;;;17.55;57.14648;102010.8;;;;-68
2023/06/22 03:35:13;;;;;;;0.2;0.1;;;;;;;;;;;;;-68
2023/06/22 03:38:09;;;;;;;;;;;;;;;17.52;57.34863;102016.6;;;;-68
2023/06/22 03:43:10;;;;;;;;;;;;;;;17.44;57.37109;102020.7;;;;-68
2023/06/22 03:48:10;;;;;;;;;;;;;;;17.47;57.48926;102000.7;;;;-68
2023/06/22 03:53:10;;;;;;;;;;;;;;;17.43;57.2002;101989.5;;;;-67
2023/06/22 03:58:10;;;;;;;;;;;;;;;17.4;57.41211;101986.1;;;;-67
2023/06/22 04:03:11;;;;;;;;;;;;;;;17.4;57.35449;101985;;;;-68
2023/06/22 04:05:14;;;;;;;0.2;0.1;;;;;;;;;;;;;-69
2023/06/22 04:08:09;;;;;;;;;;;;;;;17.37;57.40625;101988.3;;;;-67
2023/06/22 04:13:10;;;;;;;;;;;;;;;17.41;57.49219;101997;;;;-67
2023/06/22 04:18:13;;;;;;;;;;;;;;;17.43;57.51758;101996.4;;;;-68
2023/06/22 04:23:10;;;;;;;;;;;;;;;17.45;57.56543;101991.1;;;;-68
2023/06/22 04:28:12;;;;;;;;;;;;;;;17.47;57.40918;101990.1;;;;-68
2023/06/22 04:33:09;;;;;;;;;;;;;;;17.51;57.16504;101989.5;;;;-68
2023/06/22 04:35:16;;;;;;;0.2;0.1;;;;;;;;;;;;;-68
2023/06/22 04:38:12;;;;;;;;;;;;;;;17.56;57.05859;101987.4;;;;-67
2023/06/22 04:43:10;;;;;;;;;;;;;;;17.6;56.93945;101984.4;;;;-67
2023/06/22 04:48:10;;;;;;;;;;;;;;;17.67;56.88086;101988.6;;;;-69
2023/06/22 04:53:12;;;;;;;;;;;;;;;17.75;56.69824;101990.3;;;;-67
2023/06/22 04:58:12;;;;;;;;;;;;;;;17.85;56.5625;101992.1;;;;-69
2023/06/22 05:03:10;;;;;;;;;;;;;;;17.94;56.62012;101982.5;;;;-69
2023/06/22 05:05:19;;;;;;;0.2;0.1;;;;;;;;;;;;;-68
2023/06/22 05:08:09;;;;;;;;;;;;;;;18.07;56.2627;101986.7;;;;-67
2023/06/22 05:13:09;;;;;;;;;;;;;;;18.23;55.9873;101986.4;;;;-69
2023/06/22 05:18:11;;;;;;;;;;;;;;;18.37;55.80273;101982.7;;;;-68
2023/06/22 05:23:10;;;;;;;;;;;;;;;18.61;55.82031;101986;;;;-68
2023/06/22 05:28:11;;;;;;;;;;;;;;;19.12;55.8623;101987;;;;-67
2023/06/22 05:33:09;;;;;;;;;;;;;;;19.84;54.57422;101977.4;;;;-69
2023/06/22 05:35:21;;;;;;;0.2;0.1;;;;;;;;;;;;;-68
2023/06/22 05:38:09;;;;;;;;;;;;;;;20.26;53.45117;101981.2;;;;-69
2023/06/22 05:43:09;;;;;;;;;;;;;;;20.73;52.86816;101985.3;;;;-68
2023/06/22 05:48:09;;;;;;;;;;;;;;;21.22;52.29785;102000.4;;;;-69
2023/06/22 05:53:10;;;;;;;;;;;;;;;21.78;51.18359;101994.4;;;;-68
2023/06/22 05:58:10;;;;;;;;;;;;;;;22.21;50.5918;101977.2;;;;-69
2023/06/22 06:03:10;;;;;;;;;;;;;;;22.57;50.42578;101975.8;;;;-68
2023/06/22 06:05:25;;;;;;;0.5;0.2;;;;;;;;;;;;;-67
2023/06/22 06:08:11;;;;;;;;;;;;;;;22.95;50.54883;101986;;;;-67
2023/06/22 06:13:09;;;;;;;;;;;;;;;23.47;50.92969;101984.7;;;;-70
2023/06/22 06:18:10;;;;;;;;;;;;;;;24.03;50.4873;101986.4;;;;-68
2023/06/22 06:23:10;;;;;;;;;;;;;;;24.3;49.66406;101987;;;;-67
2023/06/22 06:28:10;;;;;;;;;;;;;;;24.61;50.25293;101978.5;;;;-67
2023/06/22 06:33:10;;;;;;;;;;;;;;;24.8;50.40137;101983.1;;;;-67
2023/06/22 06:35:27;;;;;;;0.5;0.2;;;;;;;;;;;;;-71
2023/06/22 06:38:09;;;;;;;;;;;;;;;24.85;51.19043;101980.3;;;;-68
2023/06/22 06:43:09;;;;;;;;;;;;;;;24.64;52.04199;101986.1;;;;-68
2023/06/22 06:48:10;;;;;;;;;;;;;;;24.48;52.81836;101981.6;;;;-68
2023/06/22 06:53:10;;;;;;;;;;;;;;;24.42;53.48926;101989.4;;;;-67
2023/06/22 06:58:12;;;;;;;;;;;;;;;24.36;53.89746;101984.2;;;;-67
2023/06/22 07:03:10;;;;;;;;;;;;;;;24.3;54.51074;101977.4;;;;-68
2023/06/22 07:05:30;;;;;;;0.4;0.2;;;;;;;;;;;;;-69
2023/06/22 07:08:10;;;;;;;;;;;;;;;24.41;54.91602;101974.7;;;;-68
2023/06/22 07:13:09;;;;;;;;;;;;;;;24.44;54.73438;101968.9;;;;-68
2023/06/22 07:18:10;;;;;;;;;;;;;;;24.65;54.96777;101969.8;;;;-69
2023/06/22 07:23:09;;;;;;;;;;;;;;;24.83;54.72559;101972.5;;;;-68
2023/06/22 07:28:11;;;;;;;;;;;;;;;25.13;54.13965;101971;;;;-68
2023/06/22 07:33:09;;;;;;;;;;;;;;;25.37;53.06055;101970.4;;;;-68
2023/06/22 07:35:34;;;;;;;0.2;0;;;;;;;;;;;;;-69
2023/06/22 07:38:09;;;;;;;;;;;;;;;25.35;53.7627;101970.4;;;;-68
2023/06/22 07:43:09;;;;;;;;;;;;;;;25.56;53.65918;101963.4;;;;-68
2023/06/22 07:48:09;;;;;;;;;;;;;;;25.95;52.74805;101960.3;;;;-68
2023/06/22 07:53:10;;;;;;;;;;;;;;;26.28;51.93066;101952.5;;;;-67
2023/06/22 07:58:09;;;;;;;;;;;;;;;26.64;51.50879;101945;;;;-67
2023/06/22 08:03:09;;;;;;;;;;;;;;;26.96;50.66602;101944.5;;;;-69
2023/06/22 08:05:39;;;;;;;0.4;0.2;;;;;;;;;;;;;-68
2023/06/22 08:08:09;;;;;;;;;;;;;;;27;50.44922;101944.1;;;;-67
2023/06/22 08:13:10;;;;;;;;;;;;;;;26.95;50.6416;101939;;;;-69
2023/06/22 08:18:10;;;;;;;;;;;;;;;26.92;51.08887;101940;;;;-68
2023/06/22 08:23:10;;;;;;;;;;;;;;;27.17;50.66602;101930.2;;;;-67
2023/06/22 08:28:09;;;;;;;;;;;;;;;27.54;50.25391;101937.2;;;;-69
2023/06/22 08:33:09;;;;;;;;;;;;;;;27.81;49.65723;101926.2;;;;-68
2023/06/22 08:35:43;;;;;;;0.3;0.1;;;;;;;;;;;;;-68
2023/06/22 08:38:10;;;;;;;;;;;;;;;28.03;49.44922;101925.7;;;;-68
2023/06/22 08:43:11;;;;;;;;;;;;;;;28.32;48.65527;101921.9;;;;-67
2023/06/22 08:48:10;;;;;;;;;;;;;;;28.57;48.37988;101916.6;;;;-67
2023/06/22 08:53:10;;;;;;;;;;;;;;;28.82;48.25488;101908.8;;;;-69
2023/06/22 08:58:09;;;;;;;;;;;;;;;28.98;47.74805;101911.6;;;;-68
2023/06/22 09:03:10;;;;;;;;;;;;;;;29.08;47.64258;101907.1;;;;-69
2023/06/22 09:05:47;;;;;;;0.2;0;;;;;;;;;;;;;-68
2023/06/22 09:08:09;;;;;;;;;;;;;;;29.15;47.55566;101907.1;;;;-68
2023/06/22 09:13:09;;;;;;;;;;;;;;;29.25;47.39258;101901.2;;;;-68
2023/06/22 09:18:09;;;;;;;;;;;;;;;29.49;47.06738;101896.8;;;;-67
2023/06/22 09:23:10;;;;;;;;;;;;;;;29.64;46.66211;101900.3;;;;-69
2023/06/22 09:28:11;;;;;;;;;;;;;;;29.78;46.37402;101907.6;;;;-68
2023/06/22 09:33:09;;;;;;;;;;;;;;;29.91;46.23535;101913.5;;;;-67
2023/06/22 09:35:52;;;;;;;0.2;0;;;;;;;;;;;;;-68
2023/06/22 09:38:12;;;;;;;;;;;;;;;30.11;45.99805;101891.7;;;;-68
2023/06/22 09:43:10;;;;;;;;;;;;;;;30.26;45.6748;101897.2;;;;-68
2023/06/22 09:48:09;;;;;;;;;;;;;;;30.47;45.30957;101897.5;;;;-68
2023/06/22 09:53:09;;;;;;;;;;;;;;;30.69;44.81641;101893;;;;-72
2023/06/22 09:58:10;;;;;;;;;;;;;;;30.78;44.5918;101891.5;;;;-72
2023/06/22 10:03:10;;;;;;;;;;;;;;;31.1;43.89648;101887.5;;;;-72
2023/06/22 10:06:00;;;;;;;0.2;0.1;;;;;;;;;;;;;-73
2023/06/22 10:08:10;;;;;;;;;;;;;;;31.23;43.28711;101889.3;;;;-72
2023/06/22 10:13:11;;;;;;;;;;;;;;;31.11;43.27637;101882.8;;;;-68
2023/06/22 10:18:09;;;;;;;;;;;;;;;31.06;43.4707;101878.5;;;;-71
2023/06/22 10:23:09;;;;;;;;;;;;;;;31.04;43.38672;101877.2;;;;-68
2023/06/22 10:28:09;;;;;;;;;;;;;;;31.17;43.12988;101874.6;;;;-68
2023/06/22 10:33:09;;;;;;;;;;;;;;;31.18;43.44824;101873.1;;;;-67
2023/06/22 10:36:03;;;;;;;0.7;0.1;;;;;;;;;;;;;-65
2023/06/22 10:38:10;;;;;;;;;;;;;;;31.03;43.2334;101869.5;;;;-66
2023/06/22 10:43:09;;;;;;;;;;;;;;;31.14;42.6582;101867;;;;-67
2023/06/22 10:48:09;;;;;;;;;;;;;;;31.23;42.90137;101865.5;;;;-68
2023/06/22 10:53:09;;;;;;;;;;;;;;;31.32;42.82813;101874;;;;-67
2023/06/22 10:58:10;;;;;;;;;;;;;;;31.31;42.63965;101871.9;;;;-68
2023/06/22 11:03:09;;;;;;;;;;;;;;;31.24;42.76172;101869.1;;;;-67
2023/06/22 11:06:08;;;;;;;0.2;0.1;;;;;;;;;;;;;-67
2023/06/22 11:08:09;;;;;;;;;;;;;;;31.21;42.67676;101867.7;;;;-67
2023/06/22 11:13:10;;;;;;;;;;;;;;;31.16;42.82422;101859;;;;-67
2023/06/22 11:18:09;;;;;;;;;;;;;;;31.05;43.17773;101861.4;;;;-67
2023/06/22 11:23:10;;;;;;;;;;;;;;;30.96;43.10938;101861.4;;;;-68
2023/06/22 11:28:11;;;;;;;;;;;;;;;30.81;43.57617;101860.6;;;;-68
2023/06/22 11:33:10;;;;;;;;;;;;;;;30.72;43.22754;101862;;;;-66
2023/06/22 11:36:14;;;;;;;0.2;0.1;;;;;;;;;;;;;-67
2023/06/22 11:38:09;;;;;;;;;;;;;;;30.6;43.56836;101855.6;;;;-68
2023/06/22 11:43:09;;;;;;;;;;;;;;;30.51;43.62988;101851;;;;-67
2023/06/22 11:48:09;;;;;;;;;;;;;;;30.44;43.5752;101845.9;;;;-67
2023/06/22 11:53:09;;;;;;;;;;;;;;;30.38;43.6748;101842.1;;;;-67
2023/06/22 11:58:09;;;;;;;;;;;;;;;30.3;43.38574;101833.1;;;;-67
2023/06/22 12:03:11;;;;;;;;;;;;;;;30.23;43.59082;101832.5;;;;-68
2023/06/22 12:06:20;;;;;;;0.1;0;;;;;;;;;;;;;-66
2023/06/22 12:08:09;;;;;;;;;;;;;;;30.13;43.61523;101832.9;;;;-68
2023/06/22 12:13:09;;;;;;;;;;;;;;;30.08;43.75098;101825.5;;;;-68
2023/06/22 12:18:09;;;;;;;;;;;;;;;30.02;43.71094;101821.4;;;;-69
2023/06/22 12:23:10;;;;;;;;;;;;;;;29.97;43.77539;101813.3;;;;-66
2023/06/22 12:28:09;;;;;;;;;;;;;;;29.86;43.9873;101809.2;;;;-67
2023/06/22 12:33:09;;;;;;;;;;;;;;;29.72;43.7627;101802.9;;;;-67
2023/06/22 12:36:26;;;;;;;0.2;0;;;;;;;;;;;;;-67
2023/06/22 12:38:10;;;;;;;;;;;;;;;29.64;44.29297;101806.4;;;;-68
2023/06/22 12:43:09;;;;;;;;;;;;;;;29.55;44.37793;101799.5;;;;-68
2023/06/22 12:48:09;;;;;;;;;;;;;;;29.51;44.41992;101801.4;;;;-66
2023/06/22 12:53:09;;;;;;;;;;;;;;;29.49;44.62793;101800.3;;;;-68
2023/06/22 12:58:09;;;;;;;;;;;;;;;29.4;44.64258;101786.1;;;;-67
2023/06/22 13:03:09;;;;;;;;;;;;;;;29.32;44.78711;101786.1;;;;-67
2023/06/22 13:06:30;;;;;;;0.2;0;;;;;;;;;;;;;-68
2023/06/22 13:08:10;;;;;;;;;;;;;;;29.21;44.75195;101776.7;;;;-67
2023/06/22 13:13:09;;;;;;;;;;;;;;;29.13;44.88477;101774.5;;;;-67
2023/06/22 13:18:09;;;;;;;;;;;;;;;29.02;44.97852;101774.2;;;;-67
2023/06/22 13:23:09;;;;;;;;;;;;;;;28.92;45.30664;101769.3;;;;-68
2023/06/22 13:28:10;;;;;;;;;;;;;;;28.8;45.44531;101760;;;;-67
2023/06/22 13:33:10;;;;;;;;;;;;;;;28.69;45.65723;101757;;;;-68
2023/06/22 13:36:35;;;;;;;0.2;0;;;;;;;;;;;;;-67
2023/06/22 13:38:10;;;;;;;;;;;;;;;28.55;45.63086;101750.2;;;;-67
2023/06/22 13:43:09;;;;;;;;;;;;;;;28.42;45.69922;101755;;;;-68
2023/06/22 13:48:10;;;;;;;;;;;;;;;28.33;45.86523;101751;;;;-69
2023/06/22 13:53:09;;;;;;;;;;;;;;;28.26;45.68262;101750.3;;;;-68
2023/06/22 13:58:10;;;;;;;;;;;;;;;28.19;45.90918;101738.9;;;;-67
2023/06/22 14:03:10;;;;;;;;;;;;;;;28.15;45.98633;101732.6;;;;-68
2023/06/22 14:06:41;;;;;;;0.2;0.1;;;;;;;;;;;;;-67
2023/06/22 14:08:09;;;;;;;;;;;;;;;28.11;45.88965;101733.4;;;;-68
2023/06/22 14:13:09;;;;;;;;;;;;;;;28.08;46.01465;101725.3;;;;-67
2023/06/22 14:18:09;;;;;;;;;;;;;;;28.05;46.0459;101717.5;;;;-68
2023/06/22 14:23:09;;;;;;;;;;;;;;;28.03;46.14844;101713.6;;;;-68
2023/06/22 14:28:09;;;;;;;;;;;;;;;27.97;46.28223;101710.3;;;;-68
2023/06/22 14:33:09;;;;;;;;;;;;;;;27.91;46.35742;101716.9;;;;-68
2023/06/22 14:36:45;;;;;;;0.2;0;;;;;;;;;;;;;-68
2023/06/22 14:38:10;;;;;;;;;;;;;;;27.85;46.49023;101717.8;;;;-67
2023/06/22 14:43:09;;;;;;;;;;;;;;;27.81;46.74121;101724.3;;;;-68
2023/06/22 14:48:09;;;;;;;;;;;;;;;27.73;46.91992;101718;;;;-68
2023/06/22 14:53:09;;;;;;;;;;;;;;;27.66;46.98242;101710.3;;;;-69
2023/06/22 14:58:10;;;;;;;;;;;;;;;27.61;47.15039;101708.9;;;;-68
2023/06/22 15:03:21;;;;;;;;;;;;;;;27.58;47.25293;101710;;;;-68
2023/06/22 15:06:52;;;;;;;0.2;0;;;;;;;;;;;;;-69
2023/06/22 15:08:09;;;;;;;;;;;;;;;27.51;47.31445;101711.6;;;;-67
2023/06/22 15:13:10;;;;;;;;;;;;;;;27.42;47.43359;101711.5;;;;-67
2023/06/22 15:18:09;;;;;;;;;;;;;;;27.34;47.69238;101706.9;;;;-68
2023/06/22 15:23:09;;;;;;;;;;;;;;;27.25;47.86719;101705.4;;;;-69
2023/06/22 15:28:09;;;;;;;;;;;;;;;27.18;48;101702.1;;;;-67
2023/06/22 15:33:09;;;;;;;;;;;;;;;27.12;48.02832;101701.3;;;;-65
2023/06/22 15:36:55;;;;;;;0.2;0;;;;;;;;;;;;;-65
2023/06/22 15:38:09;;;;;;;;;;;;;;;26.98;48.16406;101693.4;;;;-65
2023/06/22 15:43:10;;;;;;;;;;;;;;;26.91;48.26074;101685.5;;;;-66
2023/06/22 15:48:09;;;;;;;;;;;;;;;26.83;48.19531;101686.5;;;;-66
2023/06/22 15:53:09;;;;;;;;;;;;;;;26.66;48.52344;101683.3;;;;-66
2023/06/22 15:58:12;;;;;;;;;;;;;;;26.53;48.98438;101686;;;;-65
2023/06/22 16:03:09;;;;;;;;;;;;;;;26.43;48.66113;101689.1;;;;-65
2023/06/22 16:06:59;;;;;;;0.2;0;;;;;;;;;;;;;-66
2023/06/22 16:08:12;;;;;;;;;;;;;;;26.33;48.84668;101688.1;;;;-65
2023/06/22 16:13:09;;;;;;;;;;;;;;;26.2;48.71777;101684.9;;;;-66
2023/06/22 16:18:09;;;;;;;;;;;;;;;26.11;49.02051;101687.1;;;;-64
2023/06/22 16:23:09;;;;;;;;;;;;;;;26.01;48.75488;101686.5;;;;-65
2023/06/22 16:28:09;;;;;;;;;;;;;;;25.9;47.2627;101688.3;;;;-65
2023/06/22 16:33:09;;;;;;;;;;;;;;;25.78;48.3252;101683.6;;;;-68
2023/06/22 16:37:03;;;;;;;0.1;0;;;;;;;;;;;;;-70
2023/06/22 16:38:09;;;;;;;;;;;;;;;25.69;48.25781;101681.4;;;;-65
2023/06/22 16:43:09;;;;;;;;;;;;;;;25.61;48.53809;101685.8;;;;-67
2023/06/22 16:48:09;;;;;;;;;;;;;;;25.52;47.47754;101688.3;;;;-65
2023/06/22 16:53:09;;;;;;;;;;;;;;;25.42;47.24707;101695.1;;;;-64
2023/06/22 16:58:11;;;;;;;;;;;;;;;25.34;48.30078;101690.8;;;;-65
2023/06/22 17:03:13;;;;;;;;;;;;;;;25.28;47.56738;101696;;;;-65
2023/06/22 17:07:12;;;;;;;0.1;0;;;;;;;;;;;;;-67
2023/06/22 17:08:13;;;;;;;;;;;;;;;25.23;47.09961;101698.8;;;;-64
2023/06/22 17:13:11;;;;;;;;;;;;;;;25.17;47.24316;101700.2;;;;-65
2023/06/22 17:18:10;;;;;;;;;;;;;;;25.12;46.77637;101705.3;;;;-63
2023/06/22 17:23:09;;;;;;;;;;;;;;;25.04;46.84766;101712.1;;;;-67
2023/06/22 17:28:09;;;;;;;;;;;;;;;24.96;47.01367;101735.9;;;;-66
2023/06/22 17:33:12;;;;;;;;;;;;;;;24.91;47.1123;101751;;;;-68
2023/06/22 17:37:13;;;;;;;0.2;0;;;;;;;;;;;;;-71
2023/06/22 17:38:10;;;;;;;;;;;;;;;24.82;46.86035;101756.9;;;;-70
2023/06/22 17:43:10;;;;;;;;;;;;;;;24.75;46.80762;101754.5;;;;-68
2023/06/22 17:48:11;;;;;;;;;;;;;;;24.67;46.92578;101746.6;;;;-68
2023/06/22 17:53:12;;;;;;;;;;;;;;;24.59;46.60547;101748.1;;;;-67
2023/06/22 17:58:11;;;;;;;;;;;;;;;24.51;46.64355;101747.1;;;;-67
2023/06/22 18:03:09;;;;;;;;;;;;;;;24.44;46.87891;101759.3;;;;-67
2023/06/22 18:07:15;;;;;;;0.2;0;;;;;;;;;;;;;-68
2023/06/22 18:08:11;;;;;;;;;;;;;;;24.38;47.05762;101751.9;;;;-68
2023/06/22 18:13:14;;;;;;;;;;;;;;;24.32;46.90039;101747.9;;;;-67
2023/06/22 18:18:11;;;;;;;;;;;;;;;24.23;46.94922;101749.7;;;;-69
2023/06/22 18:23:12;;;;;;;;;;;;;;;24.15;46.95117;101760.6;;;;-68
2023/06/22 18:28:14;;;;;;;;;;;;;;;24.07;47.33496;101766.7;;;;-69
2023/06/22 18:33:09;;;;;;;;;;;;;;;23.98;47.33789;101769;;;;-70
2023/06/22 18:37:19;;;;;;;0.5;0.1;;;;;;;;;;;;;-69
2023/06/22 18:38:11;;;;;;;;;;;;;;;23.89;47.59375;101776.8;;;;-69
2023/06/22 18:43:09;;;;;;;;;;;;;;;23.82;47.6543;101787.9;;;;-70
2023/06/22 18:48:10;;;;;;;;;;;;;;;23.7;47.98633;101781.7;;;;-68
2023/06/22 18:53:14;;;;;;;;;;;;;;;23.6;47.91992;101792.9;;;;-69
2023/06/22 18:58:27;;;;;;;;;;;;;;;23.5;48.01172;101790.6;;;;-68
2023/06/22 19:03:09;;;;;;;;;;;;;;;23.43;48.08496;101788.9;;;;-70
2023/06/22 19:07:23;;;;;;;0.2;0;;;;;;;;;;;;;-70
2023/06/22 19:08:13;;;;;;;;;;;;;;;23.35;48.09961;101792.5;;;;-70
2023/06/22 19:13:30;;;;;;;;;;;;;;;23.28;48.12695;101798.7;;;;-70
2023/06/22 19:18:17;;;;;;;;;;;;;;;23.21;48.28027;101806.4;;;;-70
2023/06/22 19:23:19;;;;;;;;;;;;;;;23.14;48.46777;101810.9;;;;-71
2023/06/22 19:28:14;;;;;;;;;;;;;;;23.07;48.60938;101802.5;;;;-70
2023/06/22 19:33:10;;;;;;;;;;;;;;;22.99;48.6582;101796.3;;;;-69
2023/06/22 19:37:27;;;;;;;0.2;0.1;;;;;;;;;;;;;-69
2023/06/22 19:38:11;;;;;;;;;;;;;;;22.93;48.94922;101804.7;;;;-71
2023/06/22 19:43:10;;;;;;;;;;;;;;;22.85;49.25195;101815.2;;;;-70
2023/06/22 19:48:12;;;;;;;;;;;;;;;22.78;49.39258;101815.3;;;;-70
2023/06/22 19:53:11;;;;;;;;;;;;;;;22.65;49.7002;101823.9;;;;-71
2023/06/22 19:58:09;;;;;;;;;;;;;;;22.53;49.97461;101833.5;;;;-69
2023/06/22 20:03:11;;;;;;;;;;;;;;;22.41;50.40723;101835.4;;;;-69
2023/06/22 20:07:37;;;;;;;0.2;0;;;;;;;;;;;;;-70
2023/06/22 20:08:13;;;;;;;;;;;;;;;22.3;50.41797;101836.6;;;;-69
2023/06/22 20:13:13;;;;;;;;;;;;;;;22.19;50.56641;101846.8;;;;-70
2023/06/22 20:18:10;;;;;;;;;;;;;;;22.07;51.01172;101857.1;;;;-70
2023/06/22 20:23:10;;;;;;;;;;;;;;;21.94;51.38574;101864.5;;;;-70
2023/06/22 20:28:13;;;;;;;;;;;;;;;21.84;51.68359;101864.6;;;;-67
2023/06/22 20:33:17;;;;;;;;;;;;;;;21.74;51.76367;101854.2;;;;-70
2023/06/22 20:37:35;;;;;;;0.2;0.1;;;;;;;;;;;;;-68
2023/06/22 20:38:09;;;;;;;;;;;;;;;21.63;51.95801;101855.7;;;;-67
2023/06/22 20:43:09;;;;;;;;;;;;;;;21.55;52.34766;101864.5;;;;-67
2023/06/22 20:48:10;;;;;;;;;;;;;;;21.47;52.45313;101873.5;;;;-69
2023/06/22 20:53:10;;;;;;;;;;;;;;;21.39;52.36426;101876.8;;;;-67
2023/06/22 20:58:10;;;;;;;;;;;;;;;21.29;52.61523;101889.5;;;;-68
2023/06/22 21:03:10;;;;;;;;;;;;;;;21.24;52.90527;101886.7;;;;-68
2023/06/22 21:07:37;;;;;;;0.2;0.1;;;;;;;;;;;;;-68
2023/06/22 21:08:09;;;;;;;;;;;;;;;21.16;52.94336;101880;;;;-68
2023/06/22 21:13:10;;;;;;;;;;;;;;;21.06;53.27344;101881.8;;;;-69
2023/06/22 21:18:09;;;;;;;;;;;;;;;20.98;53.00098;101891.3;;;;-68
2023/06/22 21:23:09;;;;;;;;;;;;;;;20.88;53.37695;101892.2;;;;-68
2023/06/22 21:28:09;;;;;;;;;;;;;;;20.78;53.60449;101898.5;;;;-66
2023/06/22 21:33:09;;;;;;;;;;;;;;;20.67;53.90039;101903.9;;;;-69
2023/06/22 21:37:40;;;;;;;0.2;0.1;;;;;;;;;;;;;-69
2023/06/22 21:38:09;;;;;;;;;;;;;;;20.59;54.07324;101912.6;;;;-68
2023/06/22 21:43:12;;;;;;;;;;;;;;;20.49;54.41504;101912.7;;;;-67
2023/06/22 21:48:09;;;;;;;;;;;;;;;20.4;54.19824;101911.9;;;;-69
2023/06/22 21:53:09;;;;;;;;;;;;;;;20.31;54.34766;101913.4;;;;-68
2023/06/22 21:58:09;;;;;;;;;;;;;;;20.24;54.77246;101918.3;;;;-69
2023/06/22 22:03:09;;;;;;;;;;;;;;;20.2;54.44727;101925;;;;-68
2023/06/22 22:07:43;;;;;;;0.2;0;;;;;;;;;;;;;-67
2023/06/22 22:08:09;;;;;;;;;;;;;;;20.14;54.81641;101934.5;;;;-67
2023/06/22 22:13:10;;;;;;;;;;;;;;;20.06;54.77246;101938.9;;;;-67
2023/06/22 22:18:09;;;;;;;;;;;;;;;19.99;55.48145;101935.3;;;;-67
2023/06/22 22:23:10;;;;;;;;;;;;;;;20;55.4707;101940;;;;-67
2023/06/22 22:28:09;;;;;;;;;;;;;;;19.85;55.62402;101944.8;;;;-68
2023/06/22 22:33:09;;;;;;;;;;;;;;;19.78;55.52344;101941.9;;;;-68
2023/06/22 22:37:46;;;;;;;0.5;0.1;;;;;;;;;;;;;-68
2023/06/22 22:38:09;;;;;;;;;;;;;;;19.69;55.61426;101941.4;;;;-68
2023/06/22 22:43:09;;;;;;;;;;;;;;;19.62;55.76465;101943.5;;;;-67
2023/06/22 22:48:10;;;;;;;;;;;;;;;19.54;55.52734;101944.9;;;;-68
2023/06/22 22:53:10;;;;;;;;;;;;;;;19.45;55.82422;101952.7;;;;-67
2023/06/22 22:58:09;;;;;;;;;;;;;;;19.36;55.88086;101959.8;;;;-68
2023/06/22 23:03:09;;;;;;;;;;;;;;;19.24;55.98926;101960.8;;;;-68
2023/06/22 23:07:49;;;;;;;0.2;0.1;;;;;;;;;;;;;-68
2023/06/22 23:08:10;;;;;;;;;;;;;;;19.17;56.15234;101970.5;;;;-67
2023/06/22 23:13:09;;;;;;;;;;;;;;;19.06;56.14941;101968.3;;;;-67
2023/06/22 23:18:21;;;;;;;;;;;;;;;18.99;56.20898;101967.7;;;;-68
2023/06/22 23:23:09;;;;;;;;;;;;;;;18.92;56.54199;101973.3;;;;-71
2023/06/22 23:28:09;;;;;;;;;;;;;;;18.86;56.81641;101973;;;;-68
2023/06/22 23:33:09;;;;;;;;;;;;;;;18.77;56.66895;101969.9;;;;-67
2023/06/22 23:37:52;;;;;;;0.2;0.1;;;;;;;;;;;;;-68
2023/06/22 23:38:09;;;;;;;;;;;;;;;18.72;56.48145;101976;;;;-67
2023/06/22 23:43:10;;;;;;;;;;;;;;;18.63;56.78711;101992.3;;;;-67
2023/06/22 23:48:11;;;;;;;;;;;;;;;18.54;56.60645;101991.3;;;;-68
2023/06/22 23:53:09;;;;;;;;;;;;;;;18.48;56.76855;101993.9;;;;-68
2023/06/22 23:58:30;;;;;;;;;;;;;;;18.44;56.99023;101995.9;;;;-68
